Terminal Aerodrome Forecast
Issued by NWS

Current Version | Previous Version | Graphics & Text | Print | Product List | Glossary On
Versions: 1 2 3 4 5 6 7 8 9 10 11 12 13 14 15 16 17
000
FTUS41 KPBZ 161030 AAB
TAFMGW
TAF AMD
KMGW 161030Z 1611/1706 00000KT 2SM BR SCT002
      TEMPO 1611/1612 1/4SM FG VV001
     FM161400 33005KT P6SM SCT035=

USA.gov is the U.S. government's official web portal to all federal, state and local government web resources and services.